sensor_id;sensor_type;location;lat;lon;timestamp;temperature;humidity
41344;DHT22;27089;50.022;7.604;2023-04-01T00:00:34;9.10;99.90
41344;DHT22;27089;50.022;7.604;2023-04-01T00:03:01;9.10;99.90
41344;DHT22;27089;50.022;7.604;2023-04-01T00:05:28;9.00;99.90
41344;DHT22;27089;50.022;7.604;2023-04-01T00:07:55;9.00;99.90
41344;DHT22;27089;50.022;7.604;2023-04-01T00:10:22;9.00;99.90
41344;DHT22;27089;50.022;7.604;2023-04-01T00:12:50;8.90;99.90
41344;DHT22;27089;50.022;7.604;2023-04-01T00:15:17;8.90;99.90
41344;DHT22;27089;50.022;7.604;2023-04-01T00:17:44;8.90;99.90
41344;DHT22;27089;50.022;7.604;2023-04-01T00:20:12;8.90;99.90
41344;DHT22;27089;50.022;7.604;2023-04-01T00:22:40;8.80;99.90
41344;DHT22;27089;50.022;7.604;2023-04-01T00:25:07;8.80;99.90
41344;DHT22;27089;50.022;7.604;2023-04-01T00:27:34;8.80;99.90
41344;DHT22;27089;50.022;7.604;2023-04-01T00:30:03;8.80;99.90
41344;DHT22;27089;50.022;7.604;2023-04-01T00:32:31;8.80;99.90
41344;DHT22;27089;50.022;7.604;2023-04-01T00:34:58;8.80;99.90
41344;DHT22;27089;50.022;7.604;2023-04-01T00:37:25;8.80;99.90
41344;DHT22;27089;50.022;7.604;2023-04-01T00:39:53;8.80;99.90
41344;DHT22;27089;50.022;7.604;2023-04-01T00:42:20;8.80;99.90
41344;DHT22;27089;50.022;7.604;2023-04-01T00:44:50;8.70;99.90
41344;DHT22;27089;50.022;7.604;2023-04-01T00:47:19;8.70;99.90
41344;DHT22;27089;50.022;7.604;2023-04-01T00:49:49;8.70;99.90
41344;DHT22;27089;50.022;7.604;2023-04-01T00:52:19;8.70;99.90
41344;DHT22;27089;50.022;7.604;2023-04-01T00:54:50;8.70;99.90
41344;DHT22;27089;50.022;7.604;2023-04-01T00:57:21;8.70;99.90
41344;DHT22;27089;50.022;7.604;2023-04-01T00:59:53;8.70;99.90
41344;DHT22;27089;50.022;7.604;2023-04-01T01:02:22;8.70;99.90
41344;DHT22;27089;50.022;7.604;2023-04-01T01:04:50;8.70;99.90
41344;DHT22;27089;50.022;7.604;2023-04-01T01:07:23;8.70;99.90
41344;DHT22;27089;50.022;7.604;2023-04-01T01:10:02;8.70;99.90
41344;DHT22;27089;50.022;7.604;2023-04-01T01:12:34;8.70;99.90
41344;DHT22;27089;50.022;7.604;2023-04-01T01:15:11;8.70;99.90
41344;DHT22;27089;50.022;7.604;2023-04-01T01:17:48;8.70;99.90
41344;DHT22;27089;50.022;7.604;2023-04-01T01:20:38;8.80;99.90
41344;DHT22;27089;50.022;7.604;2023-04-01T01:26:21;8.80;99.90
41344;DHT22;27089;50.022;7.604;2023-04-01T01:29:04;8.80;99.90
41344;DHT22;27089;50.022;7.604;2023-04-01T01:31:37;8.80;99.90
41344;DHT22;27089;50.022;7.604;2023-04-01T01:34:15;8.80;99.90
41344;DHT22;27089;50.022;7.604;2023-04-01T01:36:50;8.90;99.90
41344;DHT22;27089;50.022;7.604;2023-04-01T01:39:19;8.90;99.90
41344;DHT22;27089;50.022;7.604;2023-04-01T01:41:52;8.90;99.90
41344;DHT22;27089;50.022;7.604;2023-04-01T01:44:21;8.90;99.90
41344;DHT22;27089;50.022;7.604;2023-04-01T01:46:50;8.90;99.90
41344;DHT22;27089;50.022;7.604;2023-04-01T01:49:18;8.90;99.90
41344;DHT22;27089;50.022;7.604;2023-04-01T01:51:47;8.90;99.90
41344;DHT22;27089;50.022;7.604;2023-04-01T01:54:15;8.90;99.90
41344;DHT22;27089;50.022;7.604;2023-04-01T01:56:45;8.90;99.90
41344;DHT22;27089;50.022;7.604;2023-04-01T01:59:15;8.90;99.90
41344;DHT22;27089;50.022;7.604;2023-04-01T02:01:48;8.90;99.90
41344;DHT22;27089;50.022;7.604;2023-04-01T02:04:16;8.80;99.90
41344;DHT22;27089;50.022;7.604;2023-04-01T02:06:50;8.80;99.90
41344;DHT22;27089;50.022;7.604;2023-04-01T02:09:19;8.90;99.90
41344;DHT22;27089;50.022;7.604;2023-04-01T02:11:51;8.80;99.90
41344;DHT22;27089;50.022;7.604;2023-04-01T02:14:20;8.80;99.90
41344;DHT22;27089;50.022;7.604;2023-04-01T02:16:53;8.80;99.90
41344;DHT22;27089;50.022;7.604;2023-04-01T02:19:24;8.80;99.90
41344;DHT22;27089;50.022;7.604;2023-04-01T02:21:57;8.80;99.90
41344;DHT22;27089;50.022;7.604;2023-04-01T02:24:28;8.80;99.90
41344;DHT22;27089;50.022;7.604;2023-04-01T02:26:56;8.80;99.90
41344;DHT22;27089;50.022;7.604;2023-04-01T02:29:24;8.80;99.90
41344;DHT22;27089;50.022;7.604;2023-04-01T02:31:53;8.80;99.90
41344;DHT22;27089;50.022;7.604;2023-04-01T02:34:21;8.80;99.90
41344;DHT22;27089;50.022;7.604;2023-04-01T02:36:50;8.70;99.90
41344;DHT22;27089;50.022;7.604;2023-04-01T02:39:18;8.70;99.90
41344;DHT22;27089;50.022;7.604;2023-04-01T02:41:46;8.70;99.90
41344;DHT22;27089;50.022;7.604;2023-04-01T02:44:15;8.70;99.90
41344;DHT22;27089;50.022;7.604;2023-04-01T02:46:42;8.70;99.90
41344;DHT22;27089;50.022;7.604;2023-04-01T02:49:09;8.70;99.90
41344;DHT22;27089;50.022;7.604;2023-04-01T02:51:36;8.70;99.90
41344;DHT22;27089;50.022;7.604;2023-04-01T02:54:03;8.70;99.90
41344;DHT22;27089;50.022;7.604;2023-04-01T02:56:32;8.70;99.90
41344;DHT22;27089;50.022;7.604;2023-04-01T02:58:59;8.70;99.90
41344;DHT22;27089;50.022;7.604;2023-04-01T03:01:26;8.70;99.90
41344;DHT22;27089;50.022;7.604;2023-04-01T03:03:53;8.60;99.90
41344;DHT22;27089;50.022;7.604;2023-04-01T03:06:19;8.60;99.90
41344;DHT22;27089;50.022;7.604;2023-04-01T03:08:46;8.60;99.90
41344;DHT22;27089;50.022;7.604;2023-04-01T03:11:13;8.60;99.90
41344;DHT22;27089;50.022;7.604;2023-04-01T03:13:42;8.60;99.90
41344;DHT22;27089;50.022;7.604;2023-04-01T03:16:09;8.60;99.90
41344;DHT22;27089;50.022;7.604;2023-04-01T03:18:36;8.60;99.90
41344;DHT22;27089;50.022;7.604;2023-04-01T03:21:13;8.50;99.90
41344;DHT22;27089;50.022;7.604;2023-04-01T03:23:40;8.50;99.90
41344;DHT22;27089;50.022;7.604;2023-04-01T03:26:07;8.50;99.90
41344;DHT22;27089;50.022;7.604;2023-04-01T03:28:34;8.50;99.90
41344;DHT22;27089;50.022;7.604;2023-04-01T03:31:03;8.50;99.90
41344;DHT22;27089;50.022;7.604;2023-04-01T03:33:30;8.50;99.90
41344;DHT22;27089;50.022;7.604;2023-04-01T03:35:57;8.50;99.90
41344;DHT22;27089;50.022;7.604;2023-04-01T03:38:24;8.50;99.90
41344;DHT22;27089;50.022;7.604;2023-04-01T03:40:51;8.50;99.90
41344;DHT22;27089;50.022;7.604;2023-04-01T03:43:18;8.50;99.90
41344;DHT22;27089;50.022;7.604;2023-04-01T03:45:46;8.40;99.90
41344;DHT22;27089;50.022;7.604;2023-04-01T03:48:15;8.40;99.90
41344;DHT22;27089;50.022;7.604;2023-04-01T03:50:42;8.40;99.90
41344;DHT22;27089;50.022;7.604;2023-04-01T03:53:09;8.40;99.90
41344;DHT22;27089;50.022;7.604;2023-04-01T03:55:37;8.40;99.90
41344;DHT22;27089;50.022;7.604;2023-04-01T03:58:06;8.40;99.90
41344;DHT22;27089;50.022;7.604;2023-04-01T04:00:34;8.40;99.90
41344;DHT22;27089;50.022;7.604;2023-04-01T04:03:01;8.40;99.90
41344;DHT22;27089;50.022;7.604;2023-04-01T04:05:30;8.40;99.90
41344;DHT22;27089;50.022;7.604;2023-04-01T04:07:57;8.40;99.90
41344;DHT22;27089;50.022;7.604;2023-04-01T04:10:24;8.40;99.90
41344;DHT22;27089;50.022;7.604;2023-04-01T04:12:51;8.50;99.90
41344;DHT22;27089;50.022;7.604;2023-04-01T04:15:19;8.50;99.90
41344;DHT22;27089;50.022;7.604;2023-04-01T04:17:46;8.50;99.90
41344;DHT22;27089;50.022;7.604;2023-04-01T04:20:13;8.50;99.90
41344;DHT22;27089;50.022;7.604;2023-04-01T04:22:41;8.50;99.90
41344;DHT22;27089;50.022;7.604;2023-04-01T04:25:08;8.50;99.90
41344;DHT22;27089;50.022;7.604;2023-04-01T04:27:35;8.50;99.90
41344;DHT22;27089;50.022;7.604;2023-04-01T04:30:04;8.50;99.90
41344;DHT22;27089;50.022;7.604;2023-04-01T04:32:31;8.50;99.90
41344;DHT22;27089;50.022;7.604;2023-04-01T04:34:58;8.50;99.90
41344;DHT22;27089;50.022;7.604;2023-04-01T04:37:25;8.50;99.90
41344;DHT22;27089;50.022;7.604;2023-04-01T04:39:53;8.50;99.90
41344;DHT22;27089;50.022;7.604;2023-04-01T04:42:20;8.40;99.90
41344;DHT22;27089;50.022;7.604;2023-04-01T04:44:47;8.40;99.90
41344;DHT22;27089;50.022;7.604;2023-04-01T04:47:14;8.50;99.90
41344;DHT22;27089;50.022;7.604;2023-04-01T04:49:41;8.50;99.90
41344;DHT22;27089;50.022;7.604;2023-04-01T04:52:08;8.50;99.90
41344;DHT22;27089;50.022;7.604;2023-04-01T04:54:35;8.50;99.90
41344;DHT22;27089;50.022;7.604;2023-04-01T04:57:04;8.50;99.90
41344;DHT22;27089;50.022;7.604;2023-04-01T04:59:31;8.50;99.90
41344;DHT22;27089;50.022;7.604;2023-04-01T05:01:58;8.50;99.90
41344;DHT22;27089;50.022;7.604;2023-04-01T05:04:25;8.50;99.90
41344;DHT22;27089;50.022;7.604;2023-04-01T05:06:52;8.50;99.90
41344;DHT22;27089;50.022;7.604;2023-04-01T05:09:18;8.50;99.90
41344;DHT22;27089;50.022;7.604;2023-04-01T05:11:45;8.50;99.90
41344;DHT22;27089;50.022;7.604;2023-04-01T05:14:15;8.50;99.90
41344;DHT22;27089;50.022;7.604;2023-04-01T05:16:42;8.50;99.90
41344;DHT22;27089;50.022;7.604;2023-04-01T05:19:09;8.50;99.90
41344;DHT22;27089;50.022;7.604;2023-04-01T05:21:36;8.50;99.90
41344;DHT22;27089;50.022;7.604;2023-04-01T05:24:03;8.50;99.90
41344;DHT22;27089;50.022;7.604;2023-04-01T05:26:35;8.50;99.90
41344;DHT22;27089;50.022;7.604;2023-04-01T05:29:03;8.50;99.90
41344;DHT22;27089;50.022;7.604;2023-04-01T05:31:31;8.50;99.90
41344;DHT22;27089;50.022;7.604;2023-04-01T05:33:58;8.50;99.90
41344;DHT22;27089;50.022;7.604;2023-04-01T05:36:26;8.50;99.90
41344;DHT22;27089;50.022;7.604;2023-04-01T05:38:55;8.50;99.90
41344;DHT22;27089;50.022;7.604;2023-04-01T05:41:22;8.50;99.90
41344;DHT22;27089;50.022;7.604;2023-04-01T05:43:49;8.50;99.90
41344;DHT22;27089;50.022;7.604;2023-04-01T05:46:16;8.50;99.90
41344;DHT22;27089;50.022;7.604;2023-04-01T05:48:44;8.50;99.90
41344;DHT22;27089;50.022;7.604;2023-04-01T05:51:15;8.50;99.90
41344;DHT22;27089;50.022;7.604;2023-04-01T05:53:44;8.50;99.90
41344;DHT22;27089;50.022;7.604;2023-04-01T05:56:11;8.60;99.90
41344;DHT22;27089;50.022;7.604;2023-04-01T05:58:39;8.60;99.90
41344;DHT22;27089;50.022;7.604;2023-04-01T06:01:07;8.60;99.90
41344;DHT22;27089;50.022;7.604;2023-04-01T06:03:34;8.60;99.90
41344;DHT22;27089;50.022;7.604;2023-04-01T06:06:08;8.60;99.90
41344;DHT22;27089;50.022;7.604;2023-04-01T06:08:39;8.60;99.90
41344;DHT22;27089;50.022;7.604;2023-04-01T06:11:16;8.60;99.90
41344;DHT22;27089;50.022;7.604;2023-04-01T06:13:57;8.60;99.90
41344;DHT22;27089;50.022;7.604;2023-04-01T06:16:36;8.60;99.90
41344;DHT22;27089;50.022;7.604;2023-04-01T06:19:22;8.60;99.90
41344;DHT22;27089;50.022;7.604;2023-04-01T06:22:13;8.70;99.90
41344;DHT22;27089;50.022;7.604;2023-04-01T06:25:04;8.80;99.90
41344;DHT22;27089;50.022;7.604;2023-04-01T06:27:56;8.80;99.90
41344;DHT22;27089;50.022;7.604;2023-04-01T06:30:37;8.90;99.90
41344;DHT22;27089;50.022;7.604;2023-04-01T06:33:21;9.00;99.90
41344;DHT22;27089;50.022;7.604;2023-04-01T06:36:15;9.10;99.90
41344;DHT22;27089;50.022;7.604;2023-04-01T06:39:05;9.10;99.90
41344;DHT22;27089;50.022;7.604;2023-04-01T06:44:35;9.10;99.90
41344;DHT22;27089;50.022;7.604;2023-04-01T06:47:19;9.20;99.90
41344;DHT22;27089;50.022;7.604;2023-04-01T06:49:54;9.20;99.90
41344;DHT22;27089;50.022;7.604;2023-04-01T06:52:27;9.30;99.90
41344;DHT22;27089;50.022;7.604;2023-04-01T06:55:02;9.40;99.90
41344;DHT22;27089;50.022;7.604;2023-04-01T06:57:41;9.50;99.90
41344;DHT22;27089;50.022;7.604;2023-04-01T07:00:14;9.60;99.90
41344;DHT22;27089;50.022;7.604;2023-04-01T07:02:47;9.70;99.90
41344;DHT22;27089;50.022;7.604;2023-04-01T07:05:19;9.80;99.90
41344;DHT22;27089;50.022;7.604;2023-04-01T07:07:49;9.90;99.90
41344;DHT22;27089;50.022;7.604;2023-04-01T07:10:33;10.00;99.90
41344;DHT22;27089;50.022;7.604;2023-04-01T07:13:05;10.10;99.90
41344;DHT22;27089;50.022;7.604;2023-04-01T07:15:39;10.00;99.90
41344;DHT22;27089;50.022;7.604;2023-04-01T07:18:12;10.00;99.90
41344;DHT22;27089;50.022;7.604;2023-04-01T07:20:41;9.90;99.90
41344;DHT22;27089;50.022;7.604;2023-04-01T07:23:15;9.90;99.90
41344;DHT22;27089;50.022;7.604;2023-04-01T07:25:47;9.90;99.90
41344;DHT22;27089;50.022;7.604;2023-04-01T07:28:18;9.90;99.90
41344;DHT22;27089;50.022;7.604;2023-04-01T07:30:53;9.90;99.90
41344;DHT22;27089;50.022;7.604;2023-04-01T07:33:29;9.90;99.90
41344;DHT22;27089;50.022;7.604;2023-04-01T07:36:05;9.80;99.90
41344;DHT22;27089;50.022;7.604;2023-04-01T07:38:40;9.90;99.90
41344;DHT22;27089;50.022;7.604;2023-04-01T07:41:17;9.90;99.90
41344;DHT22;27089;50.022;7.604;2023-04-01T07:43:57;9.90;99.90
41344;DHT22;27089;50.022;7.604;2023-04-01T07:46:40;9.90;99.90
41344;DHT22;27089;50.022;7.604;2023-04-01T07:49:15;9.80;99.90
41344;DHT22;27089;50.022;7.604;2023-04-01T07:51:51;9.80;99.90
41344;DHT22;27089;50.022;7.604;2023-04-01T07:54:22;9.80;99.90
41344;DHT22;27089;50.022;7.604;2023-04-01T07:56:57;9.70;99.90
41344;DHT22;27089;50.022;7.604;2023-04-01T07:59:33;9.70;99.90
41344;DHT22;27089;50.022;7.604;2023-04-01T08:02:08;9.80;99.90
41344;DHT22;27089;50.022;7.604;2023-04-01T08:04:50;9.70;99.90
41344;DHT22;27089;50.022;7.604;2023-04-01T08:07:22;9.80;99.90
41344;DHT22;27089;50.022;7.604;2023-04-01T08:09:57;9.80;99.90
41344;DHT22;27089;50.022;7.604;2023-04-01T08:12:35;9.80;99.90
41344;DHT22;27089;50.022;7.604;2023-04-01T08:15:13;9.80;99.90
41344;DHT22;27089;50.022;7.604;2023-04-01T08:17:47;9.80;99.90
41344;DHT22;27089;50.022;7.604;2023-04-01T08:20:26;9.80;99.90
41344;DHT22;27089;50.022;7.604;2023-04-01T08:22:59;9.80;99.90
41344;DHT22;27089;50.022;7.604;2023-04-01T08:25:28;9.70;99.90
41344;DHT22;27089;50.022;7.604;2023-04-01T08:28:03;9.70;99.90
41344;DHT22;27089;50.022;7.604;2023-04-01T08:30:41;9.80;99.90
41344;DHT22;27089;50.022;7.604;2023-04-01T08:33:13;9.80;99.90
41344;DHT22;27089;50.022;7.604;2023-04-01T08:35:47;9.80;99.90
41344;DHT22;27089;50.022;7.604;2023-04-01T08:38:19;9.80;99.90
41344;DHT22;27089;50.022;7.604;2023-04-01T08:41:08;9.80;99.90
41344;DHT22;27089;50.022;7.604;2023-04-01T08:43:54;9.80;99.90
41344;DHT22;27089;50.022;7.604;2023-04-01T08:49:37;9.90;99.90
41344;DHT22;27089;50.022;7.604;2023-04-01T08:52:22;9.90;99.90
41344;DHT22;27089;50.022;7.604;2023-04-01T08:58:06;10.00;99.90
41344;DHT22;27089;50.022;7.604;2023-04-01T09:00:43;10.00;99.90
41344;DHT22;27089;50.022;7.604;2023-04-01T09:03:35;10.00;99.90
41344;DHT22;27089;50.022;7.604;2023-04-01T09:06:22;10.00;99.90
41344;DHT22;27089;50.022;7.604;2023-04-01T09:09:41;10.10;99.90
41344;DHT22;27089;50.022;7.604;2023-04-01T09:15:29;10.20;99.90
41344;DHT22;27089;50.022;7.604;2023-04-01T09:18:12;10.30;99.90
41344;DHT22;27089;50.022;7.604;2023-04-01T09:20:47;10.50;99.90
41344;DHT22;27089;50.022;7.604;2023-04-01T09:23:40;10.70;99.90
41344;DHT22;27089;50.022;7.604;2023-04-01T09:29:23;11.00;99.90
41344;DHT22;27089;50.022;7.604;2023-04-01T09:32:11;11.10;99.90
41344;DHT22;27089;50.022;7.604;2023-04-01T09:34:55;11.10;99.90
41344;DHT22;27089;50.022;7.604;2023-04-01T09:37:35;11.10;99.90
41344;DHT22;27089;50.022;7.604;2023-04-01T09:40:16;11.30;99.90
41344;DHT22;27089;50.022;7.604;2023-04-01T09:42:45;11.40;99.90
41344;DHT22;27089;50.022;7.604;2023-04-01T09:45:28;11.60;99.90
41344;DHT22;27089;50.022;7.604;2023-04-01T09:48:05;11.80;99.90
41344;DHT22;27089;50.022;7.604;2023-04-01T09:50:42;11.90;99.90
41344;DHT22;27089;50.022;7.604;2023-04-01T09:53:19;11.90;99.90
41344;DHT22;27089;50.022;7.604;2023-04-01T09:56:26;11.90;99.90
41344;DHT22;27089;50.022;7.604;2023-04-01T10:02:19;11.60;99.90
41344;DHT22;27089;50.022;7.604;2023-04-01T10:05:30;11.60;99.90
41344;DHT22;27089;50.022;7.604;2023-04-01T10:14:29;12.10;99.90
41344;DHT22;27089;50.022;7.604;2023-04-01T10:17:23;12.20;99.90
41344;DHT22;27089;50.022;7.604;2023-04-01T10:20:27;12.10;99.90
41344;DHT22;27089;50.022;7.604;2023-04-01T10:23:22;12.30;99.90
41344;DHT22;27089;50.022;7.604;2023-04-01T10:26:12;12.30;99.90
41344;DHT22;27089;50.022;7.604;2023-04-01T10:29:31;12.30;99.90
41344;DHT22;27089;50.022;7.604;2023-04-01T10:32:27;12.20;99.90
41344;DHT22;27089;50.022;7.604;2023-04-01T10:41:31;11.80;99.90
41344;DHT22;27089;50.022;7.604;2023-04-01T10:50:22;11.50;99.90
41344;DHT22;27089;50.022;7.604;2023-04-01T10:53:26;11.50;99.90
41344;DHT22;27089;50.022;7.604;2023-04-01T11:02:52;11.60;99.90
41344;DHT22;27089;50.022;7.604;2023-04-01T11:12:28;11.70;99.90
41344;DHT22;27089;50.022;7.604;2023-04-01T11:21:36;11.80;99.90
41344;DHT22;27089;50.022;7.604;2023-04-01T11:24:21;11.90;99.90
41344;DHT22;27089;50.022;7.604;2023-04-01T11:27:06;12.10;99.90
41344;DHT22;27089;50.022;7.604;2023-04-01T11:35:30;12.50;99.90
41344;DHT22;27089;50.022;7.604;2023-04-01T11:38:06;12.70;99.90
41344;DHT22;27089;50.022;7.604;2023-04-01T11:40:42;12.80;99.90
41344;DHT22;27089;50.022;7.604;2023-04-01T11:43:16;13.00;99.90
41344;DHT22;27089;50.022;7.604;2023-04-01T11:45:52;13.20;99.90
41344;DHT22;27089;50.022;7.604;2023-04-01T11:48:41;13.30;99.90
41344;DHT22;27089;50.022;7.604;2023-04-01T11:51:31;13.20;99.90
41344;DHT22;27089;50.022;7.604;2023-04-01T11:54:12;12.90;99.90
41344;DHT22;27089;50.022;7.604;2023-04-01T11:56:54;12.80;99.90
41344;DHT22;27089;50.022;7.604;2023-04-01T12:02:44;12.70;99.90
41344;DHT22;27089;50.022;7.604;2023-04-01T12:05:32;12.70;99.90
41344;DHT22;27089;50.022;7.604;2023-04-01T12:08:18;12.80;99.90
41344;DHT22;27089;50.022;7.604;2023-04-01T12:10:52;12.80;99.90
41344;DHT22;27089;50.022;7.604;2023-04-01T12:13:32;12.80;99.90
41344;DHT22;27089;50.022;7.604;2023-04-01T12:16:39;12.80;99.90
41344;DHT22;27089;50.022;7.604;2023-04-01T12:19:15;12.80;99.90
41344;DHT22;27089;50.022;7.604;2023-04-01T12:21:52;12.90;99.90
41344;DHT22;27089;50.022;7.604;2023-04-01T12:24:47;12.90;99.90
41344;DHT22;27089;50.022;7.604;2023-04-01T12:27:40;13.00;99.90
41344;DHT22;27089;50.022;7.604;2023-04-01T12:30:34;13.00;99.90
41344;DHT22;27089;50.022;7.604;2023-04-01T12:33:24;13.20;99.90
41344;DHT22;27089;50.022;7.604;2023-04-01T12:36:00;13.30;99.90
41344;DHT22;27089;50.022;7.604;2023-04-01T12:38:38;13.50;99.90
41344;DHT22;27089;50.022;7.604;2023-04-01T12:41:17;13.70;99.90
41344;DHT22;27089;50.022;7.604;2023-04-01T12:47:00;13.80;99.90
41344;DHT22;27089;50.022;7.604;2023-04-01T12:49:46;13.80;99.90
41344;DHT22;27089;50.022;7.604;2023-04-01T12:52:23;13.80;99.90
41344;DHT22;27089;50.022;7.604;2023-04-01T12:58:02;13.40;99.90
41344;DHT22;27089;50.022;7.604;2023-04-01T13:00:43;13.10;99.90
41344;DHT22;27089;50.022;7.604;2023-04-01T13:03:20;12.80;99.90
41344;DHT22;27089;50.022;7.604;2023-04-01T13:08:50;12.40;99.90
41344;DHT22;27089;50.022;7.604;2023-04-01T13:11:22;12.30;99.90
41344;DHT22;27089;50.022;7.604;2023-04-01T13:14:17;12.20;99.90
41344;DHT22;27089;50.022;7.604;2023-04-01T13:16:52;12.30;99.90
41344;DHT22;27089;50.022;7.604;2023-04-01T13:19:26;12.30;99.90
41344;DHT22;27089;50.022;7.604;2023-04-01T13:22:04;12.20;99.90
41344;DHT22;27089;50.022;7.604;2023-04-01T13:24:41;12.10;99.90
41344;DHT22;27089;50.022;7.604;2023-04-01T13:27:16;12.10;99.90
41344;DHT22;27089;50.022;7.604;2023-04-01T13:29:55;12.10;99.90
41344;DHT22;27089;50.022;7.604;2023-04-01T13:32:29;12.00;99.90
41344;DHT22;27089;50.022;7.604;2023-04-01T13:35:12;12.00;99.90
41344;DHT22;27089;50.022;7.604;2023-04-01T13:37:52;12.00;99.90
41344;DHT22;27089;50.022;7.604;2023-04-01T13:40:36;12.00;99.90
41344;DHT22;27089;50.022;7.604;2023-04-01T13:43:13;11.80;99.90
41344;DHT22;27089;50.022;7.604;2023-04-01T13:45:55;11.70;99.90
41344;DHT22;27089;50.022;7.604;2023-04-01T13:48:32;11.60;99.90
41344;DHT22;27089;50.022;7.604;2023-04-01T13:51:26;11.50;99.90
41344;DHT22;27089;50.022;7.604;2023-04-01T13:57:12;11.40;99.90
41344;DHT22;27089;50.022;7.604;2023-04-01T14:00:01;11.30;99.90
41344;DHT22;27089;50.022;7.604;2023-04-01T14:02:47;11.40;99.90
41344;DHT22;27089;50.022;7.604;2023-04-01T14:05:26;11.40;99.90
41344;DHT22;27089;50.022;7.604;2023-04-01T14:08:00;11.40;99.90
41344;DHT22;27089;50.022;7.604;2023-04-01T14:10:36;11.40;99.90
41344;DHT22;27089;50.022;7.604;2023-04-01T14:13:12;11.50;99.90
41344;DHT22;27089;50.022;7.604;2023-04-01T14:16:07;11.60;99.90
41344;DHT22;27089;50.022;7.604;2023-04-01T14:18:59;11.90;99.90
41344;DHT22;27089;50.022;7.604;2023-04-01T14:21:35;12.30;99.90
41344;DHT22;27089;50.022;7.604;2023-04-01T14:24:18;12.50;99.90
41344;DHT22;27089;50.022;7.604;2023-04-01T14:27:09;12.60;99.90
41344;DHT22;27089;50.022;7.604;2023-04-01T14:29:51;12.60;99.90
41344;DHT22;27089;50.022;7.604;2023-04-01T14:32:32;12.50;99.90
41344;DHT22;27089;50.022;7.604;2023-04-01T14:35:16;12.40;99.90
41344;DHT22;27089;50.022;7.604;2023-04-01T14:38:02;12.40;99.90
41344;DHT22;27089;50.022;7.604;2023-04-01T14:40:45;12.60;99.90
41344;DHT22;27089;50.022;7.604;2023-04-01T14:43:47;12.60;99.90
41344;DHT22;27089;50.022;7.604;2023-04-01T14:46:37;12.60;99.90
41344;DHT22;27089;50.022;7.604;2023-04-01T14:49:17;12.50;99.90
41344;DHT22;27089;50.022;7.604;2023-04-01T14:51:52;12.30;99.90
41344;DHT22;27089;50.022;7.604;2023-04-01T14:54:29;12.10;99.90
41344;DHT22;27089;50.022;7.604;2023-04-01T14:57:05;12.00;99.90
41344;DHT22;27089;50.022;7.604;2023-04-01T14:59:40;12.10;99.90
41344;DHT22;27089;50.022;7.604;2023-04-01T15:02:20;12.20;99.90
41344;DHT22;27089;50.022;7.604;2023-04-01T15:04:58;12.10;99.90
41344;DHT22;27089;50.022;7.604;2023-04-01T15:07:49;12.10;99.90
41344;DHT22;27089;50.022;7.604;2023-04-01T15:10:43;12.00;99.90
41344;DHT22;27089;50.022;7.604;2023-04-01T15:13:19;11.80;99.90
41344;DHT22;27089;50.022;7.604;2023-04-01T15:16:02;11.70;99.90
41344;DHT22;27089;50.022;7.604;2023-04-01T15:18:41;11.60;99.90
41344;DHT22;27089;50.022;7.604;2023-04-01T15:21:23;11.50;99.90
41344;DHT22;27089;50.022;7.604;2023-04-01T15:24:07;11.50;99.90
41344;DHT22;27089;50.022;7.604;2023-04-01T15:27:01;11.40;99.90
41344;DHT22;27089;50.022;7.604;2023-04-01T15:29:42;11.30;99.90
41344;DHT22;27089;50.022;7.604;2023-04-01T15:32:17;11.20;99.90
41344;DHT22;27089;50.022;7.604;2023-04-01T15:34:50;11.10;99.90
41344;DHT22;27089;50.022;7.604;2023-04-01T15:37:22;11.00;99.90
41344;DHT22;27089;50.022;7.604;2023-04-01T15:39:58;11.00;99.90
41344;DHT22;27089;50.022;7.604;2023-04-01T15:42:49;10.90;99.90
41344;DHT22;27089;50.022;7.604;2023-04-01T15:45:31;10.90;99.90
41344;DHT22;27089;50.022;7.604;2023-04-01T15:48:10;10.90;99.90
41344;DHT22;27089;50.022;7.604;2023-04-01T15:50:54;10.90;99.90
41344;DHT22;27089;50.022;7.604;2023-04-01T15:53:37;10.90;99.90
41344;DHT22;27089;50.022;7.604;2023-04-01T15:56:19;10.90;99.90
41344;DHT22;27089;50.022;7.604;2023-04-01T15:58:59;10.80;99.90
41344;DHT22;27089;50.022;7.604;2023-04-01T16:01:36;10.80;99.90
41344;DHT22;27089;50.022;7.604;2023-04-01T16:04:28;10.70;99.90
41344;DHT22;27089;50.022;7.604;2023-04-01T16:07:08;10.70;99.90
41344;DHT22;27089;50.022;7.604;2023-04-01T16:09:47;10.70;99.90
41344;DHT22;27089;50.022;7.604;2023-04-01T16:12:32;10.70;99.90
41344;DHT22;27089;50.022;7.604;2023-04-01T16:15:12;10.80;99.90
41344;DHT22;27089;50.022;7.604;2023-04-01T16:18:00;10.90;99.90
41344;DHT22;27089;50.022;7.604;2023-04-01T16:20:43;11.00;99.90
41344;DHT22;27089;50.022;7.604;2023-04-01T16:23:18;11.00;99.90
41344;DHT22;27089;50.022;7.604;2023-04-01T16:25:53;11.00;99.90
41344;DHT22;27089;50.022;7.604;2023-04-01T16:28:30;10.90;99.90
41344;DHT22;27089;50.022;7.604;2023-04-01T16:31:03;10.90;99.90
41344;DHT22;27089;50.022;7.604;2023-04-01T16:33:38;10.90;99.90
41344;DHT22;27089;50.022;7.604;2023-04-01T16:36:13;10.80;99.90
41344;DHT22;27089;50.022;7.604;2023-04-01T16:38:50;10.80;99.90
41344;DHT22;27089;50.022;7.604;2023-04-01T16:41:24;10.80;99.90
41344;DHT22;27089;50.022;7.604;2023-04-01T16:43:56;10.70;99.90
41344;DHT22;27089;50.022;7.604;2023-04-01T16:46:32;10.70;99.90
41344;DHT22;27089;50.022;7.604;2023-04-01T16:49:13;10.60;99.90
41344;DHT22;27089;50.022;7.604;2023-04-01T16:51:46;10.60;99.90
41344;DHT22;27089;50.022;7.604;2023-04-01T16:54:29;10.60;99.90
41344;DHT22;27089;50.022;7.604;2023-04-01T16:57:10;10.50;99.90
41344;DHT22;27089;50.022;7.604;2023-04-01T16:59:47;10.50;99.90
41344;DHT22;27089;50.022;7.604;2023-04-01T17:02:17;10.40;99.90
41344;DHT22;27089;50.022;7.604;2023-04-01T17:04:47;10.40;99.90
41344;DHT22;27089;50.022;7.604;2023-04-01T17:07:28;10.30;99.90
41344;DHT22;27089;50.022;7.604;2023-04-01T17:10:16;10.30;99.90
41344;DHT22;27089;50.022;7.604;2023-04-01T17:12:58;10.20;99.90
41344;DHT22;27089;50.022;7.604;2023-04-01T17:15:34;10.20;99.90
41344;DHT22;27089;50.022;7.604;2023-04-01T17:18:09;10.20;99.90
41344;DHT22;27089;50.022;7.604;2023-04-01T17:20:43;10.20;99.90
41344;DHT22;27089;50.022;7.604;2023-04-01T17:23:20;10.10;99.90
41344;DHT22;27089;50.022;7.604;2023-04-01T17:26:00;10.10;99.90
41344;DHT22;27089;50.022;7.604;2023-04-01T17:28:46;10.10;99.90
41344;DHT22;27089;50.022;7.604;2023-04-01T17:31:26;10.00;99.90
41344;DHT22;27089;50.022;7.604;2023-04-01T17:34:25;10.00;99.90
41344;DHT22;27089;50.022;7.604;2023-04-01T17:37:04;10.00;99.90
41344;DHT22;27089;50.022;7.604;2023-04-01T17:40:12;10.00;99.90
41344;DHT22;27089;50.022;7.604;2023-04-01T17:42:46;10.00;99.90
41344;DHT22;27089;50.022;7.604;2023-04-01T17:45:21;9.90;99.90
41344;DHT22;27089;50.022;7.604;2023-04-01T17:48:03;10.00;99.90
41344;DHT22;27089;50.022;7.604;2023-04-01T17:51:00;10.00;99.90
41344;DHT22;27089;50.022;7.604;2023-04-01T17:53:36;9.90;99.90
41344;DHT22;27089;50.022;7.604;2023-04-01T17:56:17;9.90;99.90
41344;DHT22;27089;50.022;7.604;2023-04-01T17:58:50;9.90;99.90